createdAt,value
2018-05-09T08:44:18.355Z,44.30
2018-05-09T08:46:43.956Z,39.88
2018-05-09T08:49:09.783Z,40.04
2018-05-09T08:51:35.336Z,40.34
2018-05-09T08:54:01.125Z,40.44
2018-05-09T08:56:26.939Z,40.19
2018-05-09T08:58:52.553Z,39.91
2018-05-09T09:01:18.177Z,37.59
2018-05-09T09:03:43.913Z,37.19
2018-05-09T09:06:09.558Z,34.88
2018-05-09T09:08:35.141Z,34.56
2018-05-09T09:11:01.001Z,33.70
2018-05-09T09:13:26.688Z,34.78
2018-05-09T09:15:52.394Z,34.44
2018-05-09T09:18:18.225Z,34.59
2018-05-09T09:20:43.815Z,34.64
2018-05-09T09:23:09.373Z,33.70
2018-05-09T09:25:35.160Z,33.27
2018-05-09T09:28:00.779Z,33.91
2018-05-09T09:30:26.347Z,33.53
2018-05-09T09:32:52.099Z,33.79
2018-05-09T09:35:17.846Z,35.18
2018-05-09T09:37:43.461Z,33.54
2018-05-09T09:40:09.106Z,33.80
2018-05-09T09:42:34.841Z,34.40
2018-05-09T09:45:00.517Z,33.91
2018-05-09T09:47:26.077Z,33.91
2018-05-09T09:49:51.821Z,33.81
2018-05-09T09:52:17.477Z,34.36
2018-05-09T09:54:43.063Z,34.73
2018-05-09T09:57:08.830Z,34.32
2018-05-09T09:59:34.404Z,35.13
2018-05-09T10:02:00.025Z,35.54
2018-05-09T10:04:26.054Z,35.70
2018-05-09T10:06:51.633Z,35.38
2018-05-09T10:09:17.179Z,34.02
2018-05-09T10:11:42.996Z,32.86
2018-05-09T10:14:08.625Z,32.43
2018-05-09T10:16:34.240Z,32.78
2018-05-09T10:19:00.151Z,32.89
2018-05-09T10:21:25.761Z,33.59
2018-05-09T10:23:51.331Z,33.28
2018-05-09T10:26:17.155Z,32.95
2018-05-09T10:28:42.809Z,33.32
2018-05-09T10:31:08.389Z,33.03
2018-05-09T10:33:34.123Z,33.10
2018-05-09T10:35:59.707Z,33.83
2018-05-09T10:38:25.582Z,32.76
2018-05-09T10:40:51.411Z,32.43
2018-05-09T10:43:16.991Z,32.41
2018-05-09T10:45:42.612Z,33.23
2018-05-09T10:48:08.456Z,33.69
2018-05-09T10:50:34.020Z,33.23
2018-05-09T10:52:59.653Z,34.16
2018-05-09T10:55:25.674Z,34.12
2018-05-09T10:57:51.306Z,32.07
2018-05-09T11:00:16.871Z,32.41
2018-05-09T11:02:42.597Z,31.67
2018-05-09T11:05:08.227Z,31.14
2018-05-09T11:07:33.728Z,31.25
2018-05-09T11:09:59.525Z,31.35
2018-05-09T11:12:25.156Z,31.93
2018-05-09T11:14:50.741Z,31.23
2018-05-09T11:17:16.506Z,31.21
2018-05-09T11:19:42.052Z,31.63
2018-05-09T11:22:07.866Z,31.58
2018-05-09T11:24:33.594Z,30.81
2018-05-09T11:26:59.164Z,30.71
2018-05-09T11:29:24.728Z,32.31
2018-05-09T11:31:50.528Z,31.78
2018-05-09T11:34:16.136Z,31.61
2018-05-09T11:36:41.688Z,30.92
2018-05-09T11:39:07.500Z,31.24
2018-05-09T11:41:33.126Z,31.89
2018-05-09T11:43:58.684Z,31.39
2018-05-09T11:46:24.416Z,30.78
2018-05-09T11:48:50.006Z,30.12
2018-05-09T11:51:15.643Z,30.35
2018-05-09T11:53:41.402Z,30.70
2018-05-09T11:56:06.966Z,31.42
2018-05-09T11:58:32.532Z,30.42
2018-05-09T12:00:59.359Z,30.09
2018-05-09T12:03:25.125Z,30.12
2018-05-09T12:05:50.818Z,30.33
2018-05-09T12:08:16.518Z,30.94
2018-05-09T12:10:42.256Z,30.56
2018-05-09T12:13:07.665Z,31.00
2018-05-09T12:15:33.539Z,31.38
2018-05-09T12:17:59.135Z,31.54
2018-05-09T12:20:24.693Z,31.24
2018-05-09T12:22:50.475Z,31.39
2018-05-09T12:25:16.079Z,30.81
2018-05-09T12:27:41.841Z,30.38
2018-05-09T12:30:07.461Z,30.54
2018-05-09T12:32:33.049Z,30.96
2018-05-09T12:34:58.888Z,31.76
2018-05-09T12:37:24.457Z,32.00
2018-05-09T12:39:50.023Z,30.93
2018-05-09T12:42:15.796Z,30.92
2018-05-09T12:44:41.388Z,30.44
2018-05-09T12:47:06.940Z,31.39
2018-05-09T12:49:32.739Z,30.90
2018-05-09T12:51:58.376Z,30.97
2018-05-09T12:54:24.020Z,30.76
2018-05-09T12:56:49.812Z,30.40
2018-05-09T12:59:15.589Z,31.05
2018-05-09T13:01:41.203Z,30.11
2018-05-09T13:04:06.999Z,30.03
2018-05-09T13:06:32.571Z,30.01
2018-05-09T13:08:58.161Z,29.30
2018-05-09T13:11:23.881Z,29.12
2018-05-09T13:13:49.620Z,30.41
2018-05-09T13:16:15.287Z,29.95
2018-05-09T13:18:40.841Z,29.82
2018-05-09T13:21:06.594Z,29.10
2018-05-09T13:23:32.445Z,29.33
2018-05-09T13:25:58.121Z,28.80
2018-05-09T13:28:23.615Z,29.34
2018-05-09T13:30:49.477Z,29.38
2018-05-09T13:33:15.446Z,28.67
2018-05-09T13:35:41.062Z,29.29
2018-05-09T13:38:06.848Z,28.98
2018-05-09T13:40:32.475Z,28.30
2018-05-09T13:42:58.216Z,28.28
2018-05-09T13:45:24.033Z,27.69
2018-05-09T13:47:49.621Z,26.79
2018-05-09T13:50:15.181Z,27.57
2018-05-09T13:52:40.947Z,28.39
2018-05-09T13:55:06.519Z,28.65
2018-05-09T13:57:32.145Z,28.25
2018-05-09T13:59:57.940Z,27.98
2018-05-09T14:02:23.562Z,27.68
2018-05-09T14:04:49.221Z,28.08
2018-05-09T14:07:15.027Z,28.14
2018-05-09T14:09:40.653Z,28.28
2018-05-09T14:12:06.554Z,28.19
2018-05-09T14:14:32.569Z,27.07
2018-05-09T14:16:58.218Z,26.22
2018-05-09T14:19:23.795Z,25.72
2018-05-09T14:21:49.594Z,25.77
2018-05-09T14:24:15.176Z,25.66
2018-05-09T14:26:40.941Z,25.42
2018-05-09T14:29:06.506Z,25.58
2018-05-09T14:31:32.152Z,24.97
2018-05-09T14:36:30.185Z,25.20
2018-05-09T14:38:55.777Z,25.04
2018-05-09T14:41:21.412Z,25.78
2018-05-09T14:43:47.144Z,25.30
2018-05-09T14:46:12.772Z,25.06
2018-05-09T14:48:38.374Z,25.15
2018-05-09T14:51:04.220Z,25.07
2018-05-09T14:53:30.010Z,23.68
2018-05-09T14:55:55.645Z,23.86
2018-05-09T14:58:21.595Z,24.90
2018-05-09T15:00:47.458Z,24.27
2018-05-09T15:03:13.009Z,24.04
2018-05-09T15:05:38.653Z,25.05
2018-05-09T15:08:04.391Z,25.82
2018-05-09T15:10:30.045Z,26.12
2018-05-09T15:12:55.589Z,25.91
2018-05-09T15:15:21.710Z,25.68
2018-05-09T15:17:47.271Z,25.94
2018-05-09T15:20:12.869Z,26.27
2018-05-09T15:22:38.677Z,26.46
2018-05-09T15:25:04.239Z,26.20
2018-05-09T15:27:29.837Z,25.93
2018-05-09T15:29:55.672Z,24.86
2018-05-09T15:32:21.226Z,24.59
2018-05-09T15:34:46.787Z,25.43
2018-05-09T15:37:12.490Z,24.98
2018-05-09T15:39:38.087Z,24.41
2018-05-09T15:42:03.709Z,24.77
2018-05-09T15:44:29.490Z,23.83
2018-05-09T15:46:55.058Z,23.71
2018-05-09T15:49:20.621Z,23.85
2018-05-09T15:51:46.410Z,24.06
2018-05-09T15:54:12.108Z,23.81
2018-05-09T15:56:37.678Z,24.39
2018-05-09T15:59:03.473Z,24.50
2018-05-09T16:01:29.111Z,23.97
2018-05-09T16:03:54.724Z,24.46
2018-05-09T16:06:20.562Z,25.70
2018-05-09T16:08:46.124Z,26.01
2018-05-09T16:11:11.687Z,24.80
2018-05-09T16:13:37.556Z,25.90
2018-05-09T16:16:03.388Z,25.92
2018-05-09T16:18:28.995Z,25.26
2018-05-09T16:20:54.561Z,25.76
2018-05-09T16:23:20.411Z,24.77
2018-05-09T16:25:46.138Z,24.31
2018-05-09T16:28:11.710Z,25.10
2018-05-09T16:30:37.264Z,25.09
2018-05-09T16:33:03.033Z,24.96
2018-05-09T16:35:28.658Z,25.64
2018-05-09T16:37:54.204Z,26.27
2018-05-09T16:40:20.351Z,26.03
2018-05-09T16:42:45.991Z,26.05
2018-05-09T16:45:11.582Z,25.92
2018-05-09T16:47:37.591Z,26.01
2018-05-09T16:50:03.227Z,25.88
2018-05-09T16:52:28.841Z,25.85
2018-05-09T16:54:54.590Z,26.26
2018-05-09T16:57:20.462Z,25.80
2018-05-09T16:59:46.032Z,25.35
2018-05-09T17:02:11.613Z,25.88
2018-05-09T17:04:37.607Z,25.71
2018-05-09T17:07:03.210Z,25.25
2018-05-09T17:09:28.952Z,25.43
2018-05-09T17:11:54.682Z,26.03
2018-05-09T17:14:20.249Z,25.98
2018-05-09T17:16:45.957Z,25.65
2018-05-09T17:19:11.579Z,25.08
2018-05-09T17:22:27.251Z,24.84
2018-05-09T17:24:52.982Z,24.76
2018-05-09T17:27:18.660Z,25.18
2018-05-09T17:29:44.227Z,25.30
2018-05-09T17:32:09.833Z,25.37
2018-05-09T17:34:35.645Z,25.38
2018-05-09T17:37:01.259Z,25.35
2018-05-09T17:39:26.884Z,25.23
2018-05-09T17:41:52.627Z,25.75
2018-05-09T17:44:18.237Z,25.51
2018-05-09T17:46:43.808Z,25.69
2018-05-09T17:49:09.622Z,26.13
2018-05-09T17:51:35.232Z,26.52
2018-05-09T17:54:00.798Z,26.54
2018-05-09T17:56:26.672Z,26.18
2018-05-09T17:58:52.515Z,26.64
2018-05-09T18:01:18.083Z,26.37
2018-05-09T18:03:43.805Z,26.88
2018-05-09T18:06:09.442Z,27.09
2018-05-09T18:08:35.091Z,26.62
2018-05-09T18:11:00.885Z,27.35
2018-05-09T18:13:26.513Z,27.68
2018-05-09T18:15:52.126Z,27.86
2018-05-09T18:18:18.189Z,28.01
2018-05-09T18:20:43.811Z,28.22
2018-05-09T18:23:09.387Z,28.53
2018-05-09T18:25:35.237Z,29.33
2018-05-09T18:28:00.876Z,28.65
2018-05-09T18:30:26.508Z,29.20
2018-05-09T18:32:52.286Z,29.16
2018-05-09T18:35:17.911Z,29.19
2018-05-09T18:37:43.524Z,29.37
2018-05-09T18:40:09.323Z,30.08
2018-05-09T18:42:34.827Z,29.62
2018-05-09T18:45:00.482Z,29.81
2018-05-09T18:47:26.236Z,29.71
2018-05-09T18:49:51.782Z,29.91
2018-05-09T18:52:17.353Z,30.45
2018-05-09T18:54:43.146Z,30.74
2018-05-09T18:57:08.722Z,31.04
2018-05-09T18:59:34.587Z,31.37
2018-05-09T19:02:00.163Z,32.22
2018-05-09T19:04:25.787Z,32.50
2018-05-09T19:06:52.648Z,33.33
2018-05-09T19:09:18.261Z,33.88
2018-05-09T19:11:44.272Z,34.26
2018-05-09T19:14:11.027Z,34.25
2018-05-09T19:16:39.306Z,34.63
2018-05-09T19:19:04.909Z,35.07
2018-05-09T19:21:31.046Z,35.17
2018-05-09T19:23:56.653Z,35.25
2018-05-09T19:26:22.477Z,35.48
2018-05-09T19:28:48.409Z,35.74
2018-05-09T19:31:14.171Z,35.94
2018-05-09T19:33:39.970Z,36.82
2018-05-09T19:36:05.599Z,37.48
2018-05-09T19:38:31.250Z,38.08
2018-05-09T19:40:56.984Z,38.30
2018-05-09T19:43:22.574Z,38.74
2018-05-09T19:45:48.684Z,38.82
2018-05-09T19:48:14.432Z,39.31
2018-05-09T19:50:40.115Z,38.90
2018-05-09T19:53:05.643Z,38.94
2018-05-09T19:55:31.446Z,38.70
2018-05-09T19:57:57.073Z,39.13
2018-05-09T20:00:22.668Z,39.66
2018-05-09T20:02:48.837Z,40.55
2018-05-09T20:05:14.467Z,40.70
2018-05-09T20:07:40.041Z,40.70
2018-05-09T20:10:05.894Z,40.75
2018-05-09T20:12:31.484Z,41.46
2018-05-09T20:14:57.145Z,41.81
2018-05-09T20:17:22.992Z,41.52
2018-05-09T20:19:48.557Z,41.45
2018-05-09T20:22:14.260Z,41.22
2018-05-09T20:24:39.994Z,41.44
2018-05-09T20:27:05.945Z,41.83
2018-05-09T20:29:31.607Z,42.33
2018-05-09T20:35:04.042Z,42.79
2018-05-09T20:37:29.941Z,43.17
2018-05-09T20:39:55.513Z,43.88
2018-05-09T20:42:21.106Z,44.10
2018-05-09T20:44:46.822Z,44.41
2018-05-09T20:47:12.529Z,44.86
2018-05-09T20:49:38.170Z,45.38
2018-05-09T20:52:03.983Z,45.50
2018-05-09T20:54:29.855Z,45.12
2018-05-09T20:56:55.473Z,45.45
2018-05-09T20:59:21.549Z,45.87
2018-05-09T21:01:47.170Z,46.06
2018-05-09T21:04:12.741Z,45.92
2018-05-09T21:06:38.657Z,46.50
2018-05-09T21:09:04.430Z,46.16
2018-05-09T21:11:31.381Z,46.41
2018-05-09T21:13:56.961Z,46.67
2018-05-09T21:16:22.753Z,46.81
2018-05-09T21:18:48.337Z,46.96
2018-05-09T21:21:14.290Z,47.32
2018-05-09T21:23:40.189Z,47.42
2018-05-09T21:26:05.793Z,47.76
2018-05-09T21:28:31.657Z,48.09
2018-05-09T21:30:57.261Z,48.27
2018-05-09T21:33:23.064Z,48.51
2018-05-09T21:35:48.954Z,48.67
2018-05-09T21:38:14.549Z,48.94
2018-05-09T21:40:40.146Z,48.96
2018-05-09T21:43:05.902Z,48.55
2018-05-09T21:45:31.566Z,48.76
2018-05-09T21:47:57.257Z,48.89
2018-05-09T21:50:23.056Z,48.68
2018-05-09T21:52:48.639Z,48.85
2018-05-09T21:55:14.191Z,48.16
2018-05-09T21:57:39.976Z,48.37
2018-05-09T22:00:05.534Z,48.28
2018-05-09T22:02:31.168Z,48.57
2018-05-09T22:04:56.945Z,48.54
2018-05-09T22:07:22.509Z,49.35
2018-05-09T22:09:48.221Z,49.76
2018-05-09T22:12:13.834Z,50.33
2018-05-09T22:14:39.469Z,50.23
2018-05-09T22:17:05.304Z,50.53
2018-05-09T22:19:32.024Z,50.68
2018-05-09T22:21:58.210Z,50.31
2018-05-09T22:24:24.020Z,50.61
2018-05-09T22:26:49.873Z,51.00
2018-05-09T22:29:15.532Z,50.89
2018-05-09T22:31:41.254Z,50.80
2018-05-09T22:34:06.871Z,50.88
2018-05-09T22:36:32.605Z,50.92
2018-05-09T22:38:58.920Z,50.88
2018-05-09T22:41:24.491Z,51.87
2018-05-09T22:43:50.056Z,51.28
2018-05-09T22:46:16.143Z,51.32
2018-05-09T22:48:41.763Z,51.25
2018-05-09T22:51:07.371Z,51.80
2018-05-09T22:53:33.492Z,51.33
2018-05-09T22:55:59.074Z,51.90
2018-05-09T22:58:24.685Z,52.15
2018-05-09T23:00:50.501Z,52.51
2018-05-09T23:03:16.215Z,53.19
2018-05-09T23:05:42.428Z,53.43
2018-05-09T23:08:08.199Z,53.70
2018-05-09T23:10:34.000Z,54.57
2018-05-09T23:12:59.640Z,54.97
2018-05-09T23:15:25.576Z,55.09
2018-05-09T23:17:51.117Z,54.98
2018-05-09T23:20:16.848Z,55.14
2018-05-09T23:22:42.759Z,54.60
2018-05-09T23:25:08.329Z,55.07
2018-05-09T23:27:34.443Z,55.17
2018-05-09T23:30:00.088Z,55.44
2018-05-09T23:32:25.646Z,55.42
2018-05-09T23:34:51.412Z,55.26
2018-05-09T23:37:17.031Z,55.32
2018-05-09T23:39:42.606Z,55.43
2018-05-09T23:42:08.448Z,55.13
2018-05-09T23:44:34.026Z,54.87
2018-05-09T23:46:59.725Z,54.74
2018-05-09T23:49:25.485Z,54.64
2018-05-09T23:51:51.334Z,55.02
2018-05-09T23:54:16.891Z,55.20
2018-05-09T23:56:42.523Z,55.04
2018-05-09T23:59:08.291Z,55.36
